sensor_id;sensor_type;location;lat;lon;timestamp;pressure;altitude;pressure_sealevel;temperature;humidity
36630;BME280;36256;42.154;23.002;2022-07-09T00:01:02;96995.03;;;20.37;100.00
36630;BME280;36256;42.154;23.002;2022-07-09T00:03:29;96991.94;;;20.34;100.00
36630;BME280;36256;42.154;23.002;2022-07-09T00:05:56;96977.44;;;20.32;100.00
36630;BME280;36256;42.154;23.002;2022-07-09T00:08:23;96972.03;;;20.29;100.00
36630;BME280;36256;42.154;23.002;2022-07-09T00:10:50;96970.75;;;20.24;100.00
36630;BME280;36256;42.154;23.002;2022-07-09T00:13:16;96980.59;;;20.23;100.00
36630;BME280;36256;42.154;23.002;2022-07-09T00:15:43;96982.16;;;20.19;100.00
36630;BME280;36256;42.154;23.002;2022-07-09T00:18:10;96970.34;;;19.98;100.00
36630;BME280;36256;42.154;23.002;2022-07-09T00:20:37;96964.66;;;19.98;100.00
36630;BME280;36256;42.154;23.002;2022-07-09T00:23:04;96969.06;;;19.94;100.00
36630;BME280;36256;42.154;23.002;2022-07-09T00:25:30;96949.44;;;19.85;100.00
36630;BME280;36256;42.154;23.002;2022-07-09T00:27:57;96952.06;;;19.77;100.00
36630;BME280;36256;42.154;23.002;2022-07-09T00:30:24;96955.97;;;19.74;100.00
36630;BME280;36256;42.154;23.002;2022-07-09T00:32:51;96947.47;;;19.63;100.00
36630;BME280;36256;42.154;23.002;2022-07-09T00:35:17;96943.31;;;19.64;100.00
36630;BME280;36256;42.154;23.002;2022-07-09T00:37:44;96938.16;;;19.63;100.00
36630;BME280;36256;42.154;23.002;2022-07-09T00:40:11;96937.59;;;19.64;100.00
36630;BME280;36256;42.154;23.002;2022-07-09T00:42:37;96926.19;;;19.81;100.00
36630;BME280;36256;42.154;23.002;2022-07-09T00:45:05;96921.56;;;19.67;100.00
36630;BME280;36256;42.154;23.002;2022-07-09T00:47:31;96921.84;;;19.63;100.00
36630;BME280;36256;42.154;23.002;2022-07-09T00:49:58;96923.91;;;19.68;100.00
36630;BME280;36256;42.154;23.002;2022-07-09T00:52:25;96916.91;;;19.69;100.00
36630;BME280;36256;42.154;23.002;2022-07-09T00:54:54;96915.03;;;19.77;100.00
36630;BME280;36256;42.154;23.002;2022-07-09T00:57:21;96905.47;;;19.80;100.00
36630;BME280;36256;42.154;23.002;2022-07-09T00:59:48;96911.69;;;19.73;100.00
36630;BME280;36256;42.154;23.002;2022-07-09T01:02:16;96902.13;;;19.76;100.00
36630;BME280;36256;42.154;23.002;2022-07-09T01:04:45;96899.03;;;19.74;100.00
36630;BME280;36256;42.154;23.002;2022-07-09T01:07:11;96904.47;;;19.72;100.00
36630;BME280;36256;42.154;23.002;2022-07-09T01:09:38;96900.31;;;19.73;100.00
36630;BME280;36256;42.154;23.002;2022-07-09T01:12:07;96894.81;;;19.86;100.00
36630;BME280;36256;42.154;23.002;2022-07-09T01:14:33;96898.72;;;19.83;100.00
36630;BME280;36256;42.154;23.002;2022-07-09T01:17:02;96900.59;;;19.64;100.00
36630;BME280;36256;42.154;23.002;2022-07-09T01:19:30;96897.47;;;19.73;100.00
36630;BME280;36256;42.154;23.002;2022-07-09T01:21:58;96894.09;;;19.80;100.00
36630;BME280;36256;42.154;23.002;2022-07-09T01:24:31;96899.03;;;19.74;100.00
36630;BME280;36256;42.154;23.002;2022-07-09T01:26:58;96896.44;;;19.76;100.00
36630;BME280;36256;42.154;23.002;2022-07-09T01:29:25;96898.47;;;19.81;100.00
36630;BME280;36256;42.154;23.002;2022-07-09T01:31:52;96902.56;;;19.91;100.00
36630;BME280;36256;42.154;23.002;2022-07-09T01:34:18;96905.72;;;19.82;100.00
36630;BME280;36256;42.154;23.002;2022-07-09T01:36:45;96919.16;;;19.87;100.00
36630;BME280;36256;42.154;23.002;2022-07-09T01:39:12;96921.53;;;19.78;100.00
36630;BME280;36256;42.154;23.002;2022-07-09T01:41:38;96924.34;;;19.83;100.00
36630;BME280;36256;42.154;23.002;2022-07-09T01:44:05;96910.88;;;19.89;100.00
36630;BME280;36256;42.154;23.002;2022-07-09T01:46:34;96903.06;;;19.95;100.00
36630;BME280;36256;42.154;23.002;2022-07-09T01:49:01;96908.31;;;19.80;100.00
36630;BME280;36256;42.154;23.002;2022-07-09T01:51:27;96907.06;;;19.70;100.00
36630;BME280;36256;42.154;23.002;2022-07-09T01:53:54;96910.91;;;19.78;100.00
36630;BME280;36256;42.154;23.002;2022-07-09T01:56:21;96893.59;;;19.76;100.00
36630;BME280;36256;42.154;23.002;2022-07-09T01:58:47;96899.03;;;19.74;100.00
36630;BME280;36256;42.154;23.002;2022-07-09T02:01:14;96898.75;;;19.78;100.00
36630;BME280;36256;42.154;23.002;2022-07-09T02:03:40;96899.53;;;19.78;100.00
36630;BME280;36256;42.154;23.002;2022-07-09T02:06:07;96902.91;;;19.77;100.00
36630;BME280;36256;42.154;23.002;2022-07-09T02:08:34;96897.97;;;19.77;100.00
36630;BME280;36256;42.154;23.002;2022-07-09T02:11:01;96890.44;;;19.80;100.00
36630;BME280;36256;42.154;23.002;2022-07-09T02:13:29;96892.59;;;19.68;100.00
36630;BME280;36256;42.154;23.002;2022-07-09T02:15:55;96894.66;;;19.68;100.00
36630;BME280;36256;42.154;23.002;2022-07-09T02:18:22;96896.47;;;19.65;100.00
36630;BME280;36256;42.154;23.002;2022-07-09T02:20:48;96898.03;;;19.66;100.00
36630;BME280;36256;42.154;23.002;2022-07-09T02:23:15;96895.38;;;19.79;100.00
36630;BME280;36256;42.154;23.002;2022-07-09T02:25:42;96903.59;;;19.88;100.00
36630;BME280;36256;42.154;23.002;2022-07-09T02:28:08;96890.94;;;19.89;100.00
36630;BME280;36256;42.154;23.002;2022-07-09T02:30:35;96892.72;;;19.92;100.00
36630;BME280;36256;42.154;23.002;2022-07-09T02:33:04;96893.50;;;19.93;100.00
36630;BME280;36256;42.154;23.002;2022-07-09T02:35:31;96895.84;;;19.83;100.00
36630;BME280;36256;42.154;23.002;2022-07-09T02:37:57;96904.91;;;19.87;100.00
36630;BME280;36256;42.154;23.002;2022-07-09T02:40:24;96899.19;;;19.93;100.00
36630;BME280;36256;42.154;23.002;2022-07-09T02:42:51;96910.88;;;19.89;100.00
36630;BME280;36256;42.154;23.002;2022-07-09T02:45:17;96910.63;;;19.82;100.00
36630;BME280;36256;42.154;23.002;2022-07-09T02:47:44;96914.56;;;19.73;100.00
36630;BME280;36256;42.154;23.002;2022-07-09T02:50:11;96907.25;;;19.83;100.00
36630;BME280;36256;42.154;23.002;2022-07-09T02:52:38;96906.25;;;19.75;100.00
36630;BME280;36256;42.154;23.002;2022-07-09T02:55:05;96906.75;;;19.79;100.00
36630;BME280;36256;42.154;23.002;2022-07-09T02:57:31;96898.41;;;19.92;100.00
36630;BME280;36256;42.154;23.002;2022-07-09T02:59:58;96890.69;;;19.87;100.00
36630;BME280;36256;42.154;23.002;2022-07-09T03:02:25;96897.72;;;19.75;100.00
36630;BME280;36256;42.154;23.002;2022-07-09T03:04:52;96898.75;;;19.78;100.00
36630;BME280;36256;42.154;23.002;2022-07-09T03:07:19;96899.53;;;19.78;100.00
36630;BME280;36256;42.154;23.002;2022-07-09T03:09:46;96901.38;;;19.65;100.00
36630;BME280;36256;42.154;23.002;2022-07-09T03:12:13;96909.97;;;19.59;100.00
36630;BME280;36256;42.154;23.002;2022-07-09T03:14:39;96900.19;;;19.43;100.00
36630;BME280;36256;42.154;23.002;2022-07-09T03:17:06;96913.84;;;19.62;100.00
36630;BME280;36256;42.154;23.002;2022-07-09T03:19:32;96895.69;;;19.65;100.00
36630;BME280;36256;42.154;23.002;2022-07-09T03:21:59;96899.81;;;19.69;100.00
36630;BME280;36256;42.154;23.002;2022-07-09T03:24:26;96902.72;;;19.58;100.00
36630;BME280;36256;42.154;23.002;2022-07-09T03:26:52;96908.19;;;19.50;100.00
36630;BME280;36256;42.154;23.002;2022-07-09T03:29:19;96902.16;;;19.65;100.00
36630;BME280;36256;42.154;23.002;2022-07-09T03:31:46;96907.81;;;19.76;100.00
36630;BME280;36256;42.154;23.002;2022-07-09T03:34:13;96905.31;;;19.56;100.00
36630;BME280;36256;42.154;23.002;2022-07-09T03:36:39;96912.00;;;19.64;100.00
36630;BME280;36256;42.154;23.002;2022-07-09T03:39:06;96908.06;;;19.73;100.00
36630;BME280;36256;42.154;23.002;2022-07-09T03:41:33;96913.22;;;19.80;100.00
36630;BME280;36256;42.154;23.002;2022-07-09T03:43:59;96918.13;;;19.79;100.00
36630;BME280;36256;42.154;23.002;2022-07-09T03:46:26;96919.16;;;19.87;100.00
36630;BME280;36256;42.154;23.002;2022-07-09T03:48:53;96922.50;;;19.86;100.00
36630;BME280;36256;42.154;23.002;2022-07-09T03:51:20;96919.22;;;19.71;100.00
36630;BME280;36256;42.154;23.002;2022-07-09T03:53:46;96918.63;;;19.83;100.00
36630;BME280;36256;42.154;23.002;2022-07-09T03:56:13;96920.72;;;19.83;100.00
36630;BME280;36256;42.154;23.002;2022-07-09T03:58:39;96922.00;;;19.87;100.00
36630;BME280;36256;42.154;23.002;2022-07-09T04:01:06;96933.06;;;19.96;100.00
36630;BME280;36256;42.154;23.002;2022-07-09T04:03:33;96925.75;;;20.06;100.00
36630;BME280;36256;42.154;23.002;2022-07-09T04:06:00;96933.91;;;19.86;100.00
36630;BME280;36256;42.154;23.002;2022-07-09T04:08:26;96933.41;;;19.82;100.00
36630;BME280;36256;42.154;23.002;2022-07-09T04:10:53;96937.97;;;19.96;100.00
36630;BME280;36256;42.154;23.002;2022-07-09T04:13:19;96942.94;;;19.95;100.00
36630;BME280;36256;42.154;23.002;2022-07-09T04:15:46;96941.41;;;19.83;100.00
36630;BME280;36256;42.154;23.002;2022-07-09T04:18:14;96943.00;;;19.73;100.00
36630;BME280;36256;42.154;23.002;2022-07-09T04:20:42;96940.91;;;19.79;100.00
36630;BME280;36256;42.154;23.002;2022-07-09T04:23:08;96946.06;;;19.86;100.00
36630;BME280;36256;42.154;23.002;2022-07-09T04:25:35;96937.97;;;19.96;100.00
36630;BME280;36256;42.154;23.002;2022-07-09T04:28:02;96940.69;;;19.72;100.00
36630;BME280;36256;42.154;23.002;2022-07-09T04:30:29;96938.16;;;19.63;100.00
36630;BME280;36256;42.154;23.002;2022-07-09T04:32:55;96943.63;;;19.55;100.00
36630;BME280;36256;42.154;23.002;2022-07-09T04:35:22;96939.53;;;19.34;100.00
36630;BME280;36256;42.154;23.002;2022-07-09T04:37:48;96944.19;;;19.37;100.00
36630;BME280;36256;42.154;23.002;2022-07-09T04:40:15;96953.75;;;19.39;100.00
36630;BME280;36256;42.154;23.002;2022-07-09T04:42:42;96948.81;;;19.45;100.00
36630;BME280;36256;42.154;23.002;2022-07-09T04:45:09;96950.34;;;19.52;100.00
36630;BME280;36256;42.154;23.002;2022-07-09T04:47:35;96955.72;;;19.67;100.00
36630;BME280;36256;42.154;23.002;2022-07-09T04:50:02;96952.88;;;19.72;100.00
36630;BME280;36256;42.154;23.002;2022-07-09T04:52:30;96951.31;;;19.71;100.00
36630;BME280;36256;42.154;23.002;2022-07-09T04:54:57;96955.94;;;19.80;100.00
36630;BME280;36256;42.154;23.002;2022-07-09T04:57:23;96957.50;;;19.75;100.00
36630;BME280;36256;42.154;23.002;2022-07-09T04:59:50;96951.03;;;19.75;100.00
36630;BME280;36256;42.154;23.002;2022-07-09T05:02:17;96959.56;;;19.75;100.00
36630;BME280;36256;42.154;23.002;2022-07-09T05:04:43;96957.53;;;19.64;100.00
36630;BME280;36256;42.154;23.002;2022-07-09T05:07:10;96956.53;;;19.62;100.00
36630;BME280;36256;42.154;23.002;2022-07-09T05:09:37;96952.16;;;19.55;100.00
36630;BME280;36256;42.154;23.002;2022-07-09T05:12:04;96950.84;;;19.56;100.00
36630;BME280;36256;42.154;23.002;2022-07-09T05:14:30;96949.34;;;19.44;100.00
36630;BME280;36256;42.154;23.002;2022-07-09T05:16:57;96952.97;;;19.39;100.00
36630;BME280;36256;42.154;23.002;2022-07-09T05:19:24;96950.09;;;19.50;100.00
36630;BME280;36256;42.154;23.002;2022-07-09T05:21:50;96957.53;;;19.64;100.00
36630;BME280;36256;42.154;23.002;2022-07-09T05:24:17;96962.22;;;19.56;100.00
36630;BME280;36256;42.154;23.002;2022-07-09T05:26:44;96955.81;;;19.44;100.00
36630;BME280;36256;42.154;23.002;2022-07-09T05:29:10;96956.59;;;19.45;100.00
36630;BME280;36256;42.154;23.002;2022-07-09T05:31:37;96965.06;;;19.56;100.00
36630;BME280;36256;42.154;23.002;2022-07-09T05:34:04;96965.81;;;19.62;100.00
36630;BME280;36256;42.154;23.002;2022-07-09T05:36:32;96961.66;;;19.74;100.00
36630;BME280;36256;42.154;23.002;2022-07-09T05:38:58;96965.00;;;19.78;100.00
36630;BME280;36256;42.154;23.002;2022-07-09T05:41:27;96959.56;;;19.75;100.00
36630;BME280;36256;42.154;23.002;2022-07-09T05:43:54;96959.84;;;19.77;100.00
36630;BME280;36256;42.154;23.002;2022-07-09T05:46:20;96959.59;;;19.69;100.00
36630;BME280;36256;42.154;23.002;2022-07-09T05:48:47;96954.91;;;19.77;100.00
36630;BME280;36256;42.154;23.002;2022-07-09T05:51:14;96963.22;;;19.64;100.00
36630;BME280;36256;42.154;23.002;2022-07-09T05:53:41;96950.28;;;19.74;100.00
36630;BME280;36256;42.154;23.002;2022-07-09T05:56:07;96958.25;;;19.81;100.00
36630;BME280;36256;42.154;23.002;2022-07-09T05:58:34;96964.16;;;19.94;100.00
36630;BME280;36256;42.154;23.002;2022-07-09T06:01:02;96965.00;;;19.78;100.00
36630;BME280;36256;42.154;23.002;2022-07-09T06:03:29;96958.25;;;19.87;100.00
36630;BME280;36256;42.154;23.002;2022-07-09T06:05:55;96961.09;;;19.87;100.00
36630;BME280;36256;42.154;23.002;2022-07-09T06:08:22;96961.09;;;19.87;100.00
36630;BME280;36256;42.154;23.002;2022-07-09T06:10:50;96964.19;;;19.83;100.00
36630;BME280;36256;42.154;23.002;2022-07-09T06:13:17;96957.78;;;19.72;100.00
36630;BME280;36256;42.154;23.002;2022-07-09T06:15:44;96956.47;;;19.78;100.00
36630;BME280;36256;42.154;23.002;2022-07-09T06:18:11;96959.56;;;19.80;100.00
36630;BME280;36256;42.154;23.002;2022-07-09T06:20:37;96952.81;;;19.83;100.00
36630;BME280;36256;42.154;23.002;2022-07-09T06:23:05;96956.63;;;19.97;100.00
36630;BME280;36256;42.154;23.002;2022-07-09T06:25:32;96958.91;;;20.09;100.00
36630;BME280;36256;42.154;23.002;2022-07-09T06:27:59;96957.84;;;20.12;100.00
36630;BME280;36256;42.154;23.002;2022-07-09T06:30:26;96965.63;;;20.06;100.00
36630;BME280;36256;42.154;23.002;2022-07-09T06:32:53;96965.97;;;19.92;100.00
36630;BME280;36256;42.154;23.002;2022-07-09T06:35:19;96951.22;;;19.93;100.00
36630;BME280;36256;42.154;23.002;2022-07-09T06:37:46;96949.72;;;19.81;100.00
36630;BME280;36256;42.154;23.002;2022-07-09T06:40:13;96948.16;;;19.80;100.00
36630;BME280;36256;42.154;23.002;2022-07-09T06:42:40;96951.22;;;19.93;100.00
36630;BME280;36256;42.154;23.002;2022-07-09T06:45:07;96950.59;;;20.11;99.78
36630;BME280;36256;42.154;23.002;2022-07-09T06:47:34;96948.94;;;20.32;98.21
36630;BME280;36256;42.154;23.002;2022-07-09T06:50:07;96943.91;;;20.50;98.51
36630;BME280;36256;42.154;23.002;2022-07-09T06:52:34;96944.63;;;20.56;98.35
36630;BME280;36256;42.154;23.002;2022-07-09T06:55:00;96943.47;;;20.70;96.51
36630;BME280;36256;42.154;23.002;2022-07-09T06:57:27;96948.63;;;20.77;94.17
36630;BME280;36256;42.154;23.002;2022-07-09T06:59:55;96949.41;;;20.77;94.96
36630;BME280;36256;42.154;23.002;2022-07-09T07:02:22;96941.19;;;20.98;94.16
36630;BME280;36256;42.154;23.002;2022-07-09T07:04:48;96949.59;;;21.15;94.07
36630;BME280;36256;42.154;23.002;2022-07-09T07:07:15;96935.44;;;21.03;93.51
36630;BME280;36256;42.154;23.002;2022-07-09T07:09:42;96937.53;;;21.03;93.61
36630;BME280;36256;42.154;23.002;2022-07-09T07:12:09;96946.81;;;21.09;93.75
36630;BME280;36256;42.154;23.002;2022-07-09T07:14:36;96936.06;;;21.21;92.83
36630;BME280;36256;42.154;23.002;2022-07-09T07:17:03;96943.25;;;21.03;91.83
36630;BME280;36256;42.154;23.002;2022-07-09T07:19:30;96940.69;;;20.94;92.77
36630;BME280;36256;42.154;23.002;2022-07-09T07:21:56;96942.16;;;21.06;93.35
36630;BME280;36256;42.154;23.002;2022-07-09T07:24:23;96935.94;;;21.32;91.50
36630;BME280;36256;42.154;23.002;2022-07-09T07:26:49;96944.94;;;21.41;90.61
36630;BME280;36256;42.154;23.002;2022-07-09T07:29:16;96944.63;;;21.69;89.74
36630;BME280;36256;42.154;23.002;2022-07-09T07:31:43;96940.38;;;21.75;88.18
36630;BME280;36256;42.154;23.002;2022-07-09T07:34:10;96948.94;;;21.75;88.81
36630;BME280;36256;42.154;23.002;2022-07-09T07:36:36;96945.78;;;21.79;90.11
36630;BME280;36256;42.154;23.002;2022-07-09T07:39:03;96943.13;;;21.62;88.72
36630;BME280;36256;42.154;23.002;2022-07-09T07:41:30;96944.31;;;21.72;90.41
36630;BME280;36256;42.154;23.002;2022-07-09T07:43:56;96946.22;;;21.88;89.02
36630;BME280;36256;42.154;23.002;2022-07-09T07:46:23;96954.28;;;22.09;88.49
36630;BME280;36256;42.154;23.002;2022-07-09T07:48:50;96944.13;;;22.08;88.12
36630;BME280;36256;42.154;23.002;2022-07-09T07:51:17;96940.91;;;22.17;89.14
36630;BME280;36256;42.154;23.002;2022-07-09T07:53:43;96947.09;;;22.21;86.89
36630;BME280;36256;42.154;23.002;2022-07-09T07:56:10;96942.63;;;22.07;87.27
36630;BME280;36256;42.154;23.002;2022-07-09T07:58:37;96944.47;;;22.23;87.09
36630;BME280;36256;42.154;23.002;2022-07-09T08:01:04;96953.56;;;22.40;86.84
36630;BME280;36256;42.154;23.002;2022-07-09T08:03:31;96951.41;;;22.27;85.92
36630;BME280;36256;42.154;23.002;2022-07-09T08:05:59;96945.06;;;22.16;86.80
36630;BME280;36256;42.154;23.002;2022-07-09T08:08:27;96948.63;;;22.22;86.29
36630;BME280;36256;42.154;23.002;2022-07-09T08:10:53;96951.97;;;22.26;85.37
36630;BME280;36256;42.154;23.002;2022-07-09T08:13:20;96948.91;;;22.37;83.42
36630;BME280;36256;42.154;23.002;2022-07-09T08:15:47;96953.72;;;22.29;85.79
36630;BME280;36256;42.154;23.002;2022-07-09T08:18:13;96945.28;;;22.18;85.67
36630;BME280;36256;42.154;23.002;2022-07-09T08:20:42;96954.19;;;22.33;86.37
36630;BME280;36256;42.154;23.002;2022-07-09T08:23:09;96950.78;;;22.53;85.44
36630;BME280;36256;42.154;23.002;2022-07-09T08:25:36;96945.06;;;22.72;84.28
36630;BME280;36256;42.154;23.002;2022-07-09T08:28:03;96956.66;;;22.60;83.29
36630;BME280;36256;42.154;23.002;2022-07-09T08:30:30;96952.94;;;22.47;83.64
36630;BME280;36256;42.154;23.002;2022-07-09T08:32:56;96953.25;;;22.43;84.92
36630;BME280;36256;42.154;23.002;2022-07-09T08:35:23;96955.59;;;22.63;85.16
36630;BME280;36256;42.154;23.002;2022-07-09T08:37:52;96950.09;;;22.66;84.84
36630;BME280;36256;42.154;23.002;2022-07-09T08:40:20;96962.22;;;22.53;84.02
36630;BME280;36256;42.154;23.002;2022-07-09T08:42:49;96960.06;;;22.59;85.07
36630;BME280;36256;42.154;23.002;2022-07-09T08:45:17;96957.66;;;22.44;83.96
36630;BME280;36256;42.154;23.002;2022-07-09T08:47:45;96958.91;;;22.49;84.24
36630;BME280;36256;42.154;23.002;2022-07-09T08:50:13;96962.84;;;22.64;83.80
36630;BME280;36256;42.154;23.002;2022-07-09T08:52:41;96955.50;;;22.32;83.99
36630;BME280;36256;42.154;23.002;2022-07-09T08:55:09;96954.88;;;22.39;85.39
36630;BME280;36256;42.154;23.002;2022-07-09T08:57:36;96957.13;;;22.27;84.23
36630;BME280;36256;42.154;23.002;2022-07-09T09:00:04;96957.91;;;22.28;84.62
36630;BME280;36256;42.154;23.002;2022-07-09T09:02:38;96970.72;;;22.21;84.86
36630;BME280;36256;42.154;23.002;2022-07-09T09:05:13;96963.91;;;22.06;84.44
36630;BME280;36256;42.154;23.002;2022-07-09T09:07:41;96964.75;;;22.01;85.32
36630;BME280;36256;42.154;23.002;2022-07-09T09:10:08;96968.22;;;21.94;86.55
36630;BME280;36256;42.154;23.002;2022-07-09T09:12:34;96969.06;;;21.88;85.98
36630;BME280;36256;42.154;23.002;2022-07-09T09:15:05;96967.22;;;21.91;85.52
36630;BME280;36256;42.154;23.002;2022-07-09T09:17:32;96968.69;;;21.98;87.11
36630;BME280;36256;42.154;23.002;2022-07-09T09:19:59;96974.88;;;22.02;84.91
36630;BME280;36256;42.154;23.002;2022-07-09T09:22:27;96967.91;;;21.97;85.88
36630;BME280;36256;42.154;23.002;2022-07-09T09:24:53;96961.88;;;21.82;86.24
36630;BME280;36256;42.154;23.002;2022-07-09T09:27:27;96968.34;;;21.82;86.22
36630;BME280;36256;42.154;23.002;2022-07-09T09:29:57;96956.50;;;21.97;86.49
36630;BME280;36256;42.154;23.002;2022-07-09T09:32:24;96959.25;;;21.84;86.29
36630;BME280;36256;42.154;23.002;2022-07-09T09:34:51;96960.28;;;21.62;87.33
36630;BME280;36256;42.154;23.002;2022-07-09T09:37:24;96966.56;;;21.55;88.98
36630;BME280;36256;42.154;23.002;2022-07-09T09:39:51;96973.47;;;21.65;89.32
36630;BME280;36256;42.154;23.002;2022-07-09T09:42:18;96956.22;;;21.52;87.68
36630;BME280;36256;42.154;23.002;2022-07-09T09:44:45;96960.75;;;21.66;89.39
36630;BME280;36256;42.154;23.002;2022-07-09T09:47:14;96966.69;;;21.68;89.23
36630;BME280;36256;42.154;23.002;2022-07-09T09:49:41;96966.31;;;21.77;88.39
36630;BME280;36256;42.154;23.002;2022-07-09T09:52:10;96955.63;;;21.83;88.04
36630;BME280;36256;42.154;23.002;2022-07-09T09:54:40;96977.28;;;21.98;88.16
36630;BME280;36256;42.154;23.002;2022-07-09T09:57:12;96965.59;;;21.96;86.89
36630;BME280;36256;42.154;23.002;2022-07-09T09:59:44;96960.50;;;21.88;87.19
36630;BME280;36256;42.154;23.002;2022-07-09T10:02:12;96962.97;;;21.98;87.53
36630;BME280;36256;42.154;23.002;2022-07-09T10:04:39;96960.03;;;22.03;86.21
36630;BME280;36256;42.154;23.002;2022-07-09T10:07:07;96955.44;;;22.19;86.95
36630;BME280;36256;42.154;23.002;2022-07-09T10:09:34;96955.50;;;22.32;86.46
36630;BME280;36256;42.154;23.002;2022-07-09T10:12:01;96946.00;;;22.61;86.41
36630;BME280;36256;42.154;23.002;2022-07-09T10:16:55;96957.56;;;22.50;83.40
36630;BME280;36256;42.154;23.002;2022-07-09T10:19:29;96948.75;;;22.67;83.42
36630;BME280;36256;42.154;23.002;2022-07-09T10:21:57;96945.91;;;22.98;83.37
36630;BME280;36256;42.154;23.002;2022-07-09T10:24:29;96962.88;;;23.09;81.09
36630;BME280;36256;42.154;23.002;2022-07-09T10:27:03;96967.09;;;23.08;81.34
36630;BME280;36256;42.154;23.002;2022-07-09T10:29:30;96952.53;;;23.06;81.20
36630;BME280;36256;42.154;23.002;2022-07-09T10:31:57;96969.69;;;22.93;78.69
36630;BME280;36256;42.154;23.002;2022-07-09T10:36:59;96962.34;;;22.79;80.35
36630;BME280;36256;42.154;23.002;2022-07-09T10:39:26;96948.09;;;22.92;79.64
36630;BME280;36256;42.154;23.002;2022-07-09T10:42:06;96957.56;;;22.87;78.77
36630;BME280;36256;42.154;23.002;2022-07-09T10:44:36;96953.47;;;22.96;79.03
36630;BME280;36256;42.154;23.002;2022-07-09T10:47:04;96963.00;;;23.17;78.97
36630;BME280;36256;42.154;23.002;2022-07-09T10:49:35;96959.72;;;23.26;79.68
36630;BME280;36256;42.154;23.002;2022-07-09T10:52:04;96966.41;;;23.15;77.83
36630;BME280;36256;42.154;23.002;2022-07-09T10:54:33;96949.25;;;23.15;77.31
36630;BME280;36256;42.154;23.002;2022-07-09T10:57:00;96953.63;;;23.48;78.26
36630;BME280;36256;42.154;23.002;2022-07-09T10:59:27;96957.09;;;23.28;77.28
36630;BME280;36256;42.154;23.002;2022-07-09T11:01:54;96947.00;;;23.40;78.03
36630;BME280;36256;42.154;23.002;2022-07-09T11:04:25;96941.06;;;23.51;76.13
36630;BME280;36256;42.154;23.002;2022-07-09T11:06:58;96958.56;;;23.34;74.42
36630;BME280;36256;42.154;23.002;2022-07-09T11:09:26;96974.44;;;23.35;74.96
36630;BME280;36256;42.154;23.002;2022-07-09T11:11:57;96960.50;;;23.26;76.49
36630;BME280;36256;42.154;23.002;2022-07-09T11:14:23;96966.88;;;23.19;75.88
36630;BME280;36256;42.154;23.002;2022-07-09T11:16:57;96977.16;;;22.96;75.56
36630;BME280;36256;42.154;23.002;2022-07-09T11:19:30;96973.22;;;22.99;76.18
36630;BME280;36256;42.154;23.002;2022-07-09T11:22:03;96975.69;;;22.90;77.69
36630;BME280;36256;42.154;23.002;2022-07-09T11:24:30;96980.31;;;22.61;80.53
36630;BME280;36256;42.154;23.002;2022-07-09T11:27:04;97001.00;;;22.48;81.20
36630;BME280;36256;42.154;23.002;2022-07-09T11:29:32;96993.50;;;22.64;81.17
36630;BME280;36256;42.154;23.002;2022-07-09T11:31:58;96985.66;;;22.70;80.75
36630;BME280;36256;42.154;23.002;2022-07-09T11:34:25;96987.41;;;22.73;80.63
36630;BME280;36256;42.154;23.002;2022-07-09T11:36:54;97003.94;;;22.80;81.06
36630;BME280;36256;42.154;23.002;2022-07-09T11:39:23;97001.00;;;22.48;81.63
36630;BME280;36256;42.154;23.002;2022-07-09T11:41:50;96990.34;;;22.49;82.60
36630;BME280;36256;42.154;23.002;2022-07-09T11:44:52;97006.50;;;22.28;87.25
36630;BME280;36256;42.154;23.002;2022-07-09T11:47:19;97000.06;;;22.22;90.75
36630;BME280;36256;42.154;23.002;2022-07-09T11:49:49;97010.94;;;21.80;91.57
36630;BME280;36256;42.154;23.002;2022-07-09T11:52:19;97004.03;;;21.70;94.13
36630;BME280;36256;42.154;23.002;2022-07-09T11:57:25;97009.34;;;21.37;95.25
36630;BME280;36256;42.154;23.002;2022-07-09T11:59:52;97020.66;;;21.18;98.07
36630;BME280;36256;42.154;23.002;2022-07-09T12:02:38;97015.28;;;21.09;98.74
36630;BME280;36256;42.154;23.002;2022-07-09T12:05:08;97011.94;;;21.05;97.92
36630;BME280;36256;42.154;23.002;2022-07-09T12:07:38;97016.56;;;20.73;98.81
36630;BME280;36256;42.154;23.002;2022-07-09T12:10:09;97022.28;;;20.73;97.01
36630;BME280;36256;42.154;23.002;2022-07-09T12:12:36;97017.97;;;20.61;95.92
36630;BME280;36256;42.154;23.002;2022-07-09T12:15:05;97018.94;;;20.69;97.12
36630;BME280;36256;42.154;23.002;2022-07-09T12:17:34;97024.09;;;20.70;97.71
36630;BME280;36256;42.154;23.002;2022-07-09T12:20:02;97024.59;;;20.28;98.36
36630;BME280;36256;42.154;23.002;2022-07-09T12:22:33;97021.53;;;20.20;100.00
36630;BME280;36256;42.154;23.002;2022-07-09T12:24:59;97025.94;;;20.16;100.00
36630;BME280;36256;42.154;23.002;2022-07-09T12:27:26;97012.00;;;20.07;100.00
36630;BME280;36256;42.154;23.002;2022-07-09T12:29:53;97019.50;;;20.04;100.00
36630;BME280;36256;42.154;23.002;2022-07-09T12:32:19;97019.31;;;19.91;100.00
36630;BME280;36256;42.154;23.002;2022-07-09T12:34:46;97006.66;;;19.87;100.00
36630;BME280;36256;42.154;23.002;2022-07-09T12:37:13;97004.31;;;19.85;100.00
36630;BME280;36256;42.154;23.002;2022-07-09T12:39:39;97011.53;;;19.97;100.00
36630;BME280;36256;42.154;23.002;2022-07-09T12:42:06;97006.84;;;20.00;100.00
36630;BME280;36256;42.154;23.002;2022-07-09T12:44:32;97014.13;;;19.95;100.00
36630;BME280;36256;42.154;23.002;2022-07-09T12:46:59;97015.94;;;19.93;100.00
36630;BME280;36256;42.154;23.002;2022-07-09T12:49:26;97015.19;;;19.87;100.00
36630;BME280;36256;42.154;23.002;2022-07-09T12:51:54;97011.59;;;19.81;100.00
36630;BME280;36256;42.154;23.002;2022-07-09T12:54:20;97009.84;;;19.61;100.00